sensor_id;sensor_type;location;lat;lon;timestamp;temperature;humidity
2407;DHT22;37709;53.480;9.688;2023-09-19T00:00:46;16.20;99.90
2407;DHT22;37709;53.480;9.688;2023-09-19T00:03:15;16.20;99.90
2407;DHT22;37709;53.480;9.688;2023-09-19T00:05:42;16.30;99.90
2407;DHT22;37709;53.480;9.688;2023-09-19T00:08:11;16.40;99.90
2407;DHT22;37709;53.480;9.688;2023-09-19T00:10:42;16.40;99.90
2407;DHT22;37709;53.480;9.688;2023-09-19T00:13:10;16.40;99.90
2407;DHT22;37709;53.480;9.688;2023-09-19T00:15:45;16.30;99.90
2407;DHT22;37709;53.480;9.688;2023-09-19T00:18:19;16.20;99.90
2407;DHT22;37709;53.480;9.688;2023-09-19T00:20:49;16.00;99.90
2407;DHT22;37709;53.480;9.688;2023-09-19T00:23:18;15.80;99.90
2407;DHT22;37709;53.480;9.688;2023-09-19T00:25:47;15.60;99.90
2407;DHT22;37709;53.480;9.688;2023-09-19T00:28:15;15.60;99.90
2407;DHT22;37709;53.480;9.688;2023-09-19T00:30:43;15.80;99.90
2407;DHT22;37709;53.480;9.688;2023-09-19T00:33:12;15.90;99.90
2407;DHT22;37709;53.480;9.688;2023-09-19T00:35:54;15.90;99.90
2407;DHT22;37709;53.480;9.688;2023-09-19T00:38:22;15.80;99.90
2407;DHT22;37709;53.480;9.688;2023-09-19T00:40:54;15.80;99.90
2407;DHT22;37709;53.480;9.688;2023-09-19T00:43:29;15.80;99.90
2407;DHT22;37709;53.480;9.688;2023-09-19T00:45:56;15.80;99.90
2407;DHT22;37709;53.480;9.688;2023-09-19T00:48:25;15.70;99.90
2407;DHT22;37709;53.480;9.688;2023-09-19T00:50:55;15.70;99.90
2407;DHT22;37709;53.480;9.688;2023-09-19T00:53:24;15.60;99.90
2407;DHT22;37709;53.480;9.688;2023-09-19T00:55:54;15.50;99.90
2407;DHT22;37709;53.480;9.688;2023-09-19T00:58:22;15.50;99.90
2407;DHT22;37709;53.480;9.688;2023-09-19T01:00:49;15.60;99.90
2407;DHT22;37709;53.480;9.688;2023-09-19T01:03:18;15.60;99.90
2407;DHT22;37709;53.480;9.688;2023-09-19T01:05:46;15.70;99.90
2407;DHT22;37709;53.480;9.688;2023-09-19T01:08:14;15.80;99.90
2407;DHT22;37709;53.480;9.688;2023-09-19T01:10:52;15.90;99.90
2407;DHT22;37709;53.480;9.688;2023-09-19T01:13:31;15.90;99.90
2407;DHT22;37709;53.480;9.688;2023-09-19T01:16:15;15.90;99.90
2407;DHT22;37709;53.480;9.688;2023-09-19T01:18:52;15.80;99.90
2407;DHT22;37709;53.480;9.688;2023-09-19T01:21:51;15.80;99.90
2407;DHT22;37709;53.480;9.688;2023-09-19T01:24:52;15.80;99.90
2407;DHT22;37709;53.480;9.688;2023-09-19T01:27:28;15.80;99.90
2407;DHT22;37709;53.480;9.688;2023-09-19T01:30:14;15.80;99.90
2407;DHT22;37709;53.480;9.688;2023-09-19T01:32:42;15.80;99.90
2407;DHT22;37709;53.480;9.688;2023-09-19T01:35:11;15.50;99.90
2407;DHT22;37709;53.480;9.688;2023-09-19T01:37:40;15.30;99.90
2407;DHT22;37709;53.480;9.688;2023-09-19T01:40:17;15.10;99.90
2407;DHT22;37709;53.480;9.688;2023-09-19T01:45:36;14.90;99.90
2407;DHT22;37709;53.480;9.688;2023-09-19T01:51:10;14.70;99.90
2407;DHT22;37709;53.480;9.688;2023-09-19T01:53:58;14.60;99.90
2407;DHT22;37709;53.480;9.688;2023-09-19T01:56:42;14.50;99.90
2407;DHT22;37709;53.480;9.688;2023-09-19T01:59:15;14.40;99.90
2407;DHT22;37709;53.480;9.688;2023-09-19T02:01:45;14.30;99.90
2407;DHT22;37709;53.480;9.688;2023-09-19T02:04:15;14.30;99.90
2407;DHT22;37709;53.480;9.688;2023-09-19T02:06:43;14.30;99.90
2407;DHT22;37709;53.480;9.688;2023-09-19T02:09:10;14.30;99.90
2407;DHT22;37709;53.480;9.688;2023-09-19T02:11:39;14.30;99.90
2407;DHT22;37709;53.480;9.688;2023-09-19T02:14:06;14.30;99.90
2407;DHT22;37709;53.480;9.688;2023-09-19T02:16:35;14.30;99.90
2407;DHT22;37709;53.480;9.688;2023-09-19T02:19:04;14.40;99.90
2407;DHT22;37709;53.480;9.688;2023-09-19T02:21:33;14.40;99.90
2407;DHT22;37709;53.480;9.688;2023-09-19T02:24:01;14.50;99.90
2407;DHT22;37709;53.480;9.688;2023-09-19T02:26:30;14.70;99.90
2407;DHT22;37709;53.480;9.688;2023-09-19T02:28:57;14.80;99.90
2407;DHT22;37709;53.480;9.688;2023-09-19T02:31:24;15.00;99.90
2407;DHT22;37709;53.480;9.688;2023-09-19T02:33:53;15.00;99.90
2407;DHT22;37709;53.480;9.688;2023-09-19T02:36:22;14.90;99.90
2407;DHT22;37709;53.480;9.688;2023-09-19T02:38:50;15.00;99.90
2407;DHT22;37709;53.480;9.688;2023-09-19T02:41:17;15.00;99.90
2407;DHT22;37709;53.480;9.688;2023-09-19T02:43:45;14.90;99.90
2407;DHT22;37709;53.480;9.688;2023-09-19T02:46:13;15.00;99.90
2407;DHT22;37709;53.480;9.688;2023-09-19T02:48:42;15.00;99.90
2407;DHT22;37709;53.480;9.688;2023-09-19T02:51:09;15.00;99.90
2407;DHT22;37709;53.480;9.688;2023-09-19T02:53:37;15.00;99.90
2407;DHT22;37709;53.480;9.688;2023-09-19T02:56:04;15.00;99.90
2407;DHT22;37709;53.480;9.688;2023-09-19T02:58:31;15.00;99.90
2407;DHT22;37709;53.480;9.688;2023-09-19T03:01:09;15.00;99.90
2407;DHT22;37709;53.480;9.688;2023-09-19T03:03:38;15.00;99.90
2407;DHT22;37709;53.480;9.688;2023-09-19T03:06:07;15.10;99.90
2407;DHT22;37709;53.480;9.688;2023-09-19T03:08:36;15.00;99.90
2407;DHT22;37709;53.480;9.688;2023-09-19T03:11:06;15.00;99.90
2407;DHT22;37709;53.480;9.688;2023-09-19T03:13:38;15.00;99.90
2407;DHT22;37709;53.480;9.688;2023-09-19T03:16:08;15.00;99.90
2407;DHT22;37709;53.480;9.688;2023-09-19T03:18:35;15.00;99.90
2407;DHT22;37709;53.480;9.688;2023-09-19T03:21:03;15.00;99.90
2407;DHT22;37709;53.480;9.688;2023-09-19T03:23:31;14.90;99.90
2407;DHT22;37709;53.480;9.688;2023-09-19T03:25:58;14.80;99.90
2407;DHT22;37709;53.480;9.688;2023-09-19T03:28:26;14.60;99.90
2407;DHT22;37709;53.480;9.688;2023-09-19T03:31:04;14.50;99.90
2407;DHT22;37709;53.480;9.688;2023-09-19T03:33:33;14.40;99.90
2407;DHT22;37709;53.480;9.688;2023-09-19T03:36:02;14.30;99.90
2407;DHT22;37709;53.480;9.688;2023-09-19T03:38:33;14.30;99.90
2407;DHT22;37709;53.480;9.688;2023-09-19T03:41:02;14.10;99.90
2407;DHT22;37709;53.480;9.688;2023-09-19T03:43:32;13.90;99.90
2407;DHT22;37709;53.480;9.688;2023-09-19T03:46:02;13.80;99.90
2407;DHT22;37709;53.480;9.688;2023-09-19T03:48:33;13.70;99.90
2407;DHT22;37709;53.480;9.688;2023-09-19T03:51:03;13.60;99.90
2407;DHT22;37709;53.480;9.688;2023-09-19T03:53:30;13.60;99.90
2407;DHT22;37709;53.480;9.688;2023-09-19T03:55:58;13.50;99.90
2407;DHT22;37709;53.480;9.688;2023-09-19T03:58:25;13.50;99.90
2407;DHT22;37709;53.480;9.688;2023-09-19T04:00:56;13.40;99.90
2407;DHT22;37709;53.480;9.688;2023-09-19T04:03:27;13.40;99.90
2407;DHT22;37709;53.480;9.688;2023-09-19T04:06:02;13.30;99.90
2407;DHT22;37709;53.480;9.688;2023-09-19T04:08:30;13.20;99.90
2407;DHT22;37709;53.480;9.688;2023-09-19T04:10:57;13.10;99.90
2407;DHT22;37709;53.480;9.688;2023-09-19T04:13:25;13.00;99.90
2407;DHT22;37709;53.480;9.688;2023-09-19T04:15:54;13.00;99.90
2407;DHT22;37709;53.480;9.688;2023-09-19T04:18:22;13.00;99.90
2407;DHT22;37709;53.480;9.688;2023-09-19T04:20:51;12.80;99.90
2407;DHT22;37709;53.480;9.688;2023-09-19T04:23:18;12.70;99.90
2407;DHT22;37709;53.480;9.688;2023-09-19T04:25:48;12.80;99.90
2407;DHT22;37709;53.480;9.688;2023-09-19T04:28:16;12.80;99.90
2407;DHT22;37709;53.480;9.688;2023-09-19T04:30:43;12.90;99.90
2407;DHT22;37709;53.480;9.688;2023-09-19T04:33:11;12.80;99.90
2407;DHT22;37709;53.480;9.688;2023-09-19T04:35:41;12.80;99.90
2407;DHT22;37709;53.480;9.688;2023-09-19T04:38:09;12.90;99.90
2407;DHT22;37709;53.480;9.688;2023-09-19T04:40:37;12.80;99.90
2407;DHT22;37709;53.480;9.688;2023-09-19T04:43:07;12.70;99.90
2407;DHT22;37709;53.480;9.688;2023-09-19T04:45:34;12.60;99.90
2407;DHT22;37709;53.480;9.688;2023-09-19T04:48:02;12.60;99.90
2407;DHT22;37709;53.480;9.688;2023-09-19T04:50:30;12.60;99.90
2407;DHT22;37709;53.480;9.688;2023-09-19T04:52:57;12.50;99.90
2407;DHT22;37709;53.480;9.688;2023-09-19T04:55:26;12.60;99.90
2407;DHT22;37709;53.480;9.688;2023-09-19T04:57:54;12.60;99.90
2407;DHT22;37709;53.480;9.688;2023-09-19T05:00:27;12.60;99.90
2407;DHT22;37709;53.480;9.688;2023-09-19T05:02:57;12.50;99.90
2407;DHT22;37709;53.480;9.688;2023-09-19T05:05:25;12.50;99.90
2407;DHT22;37709;53.480;9.688;2023-09-19T05:07:53;12.50;99.90
2407;DHT22;37709;53.480;9.688;2023-09-19T05:10:22;12.60;99.90
2407;DHT22;37709;53.480;9.688;2023-09-19T05:12:53;12.50;99.90
2407;DHT22;37709;53.480;9.688;2023-09-19T05:15:21;12.40;99.90
2407;DHT22;37709;53.480;9.688;2023-09-19T05:17:49;12.40;99.90
2407;DHT22;37709;53.480;9.688;2023-09-19T05:20:24;12.40;99.90
2407;DHT22;37709;53.480;9.688;2023-09-19T05:23:06;12.40;99.90
2407;DHT22;37709;53.480;9.688;2023-09-19T05:25:40;12.40;99.90
2407;DHT22;37709;53.480;9.688;2023-09-19T05:28:09;12.40;99.90
2407;DHT22;37709;53.480;9.688;2023-09-19T05:30:38;12.40;99.90
2407;DHT22;37709;53.480;9.688;2023-09-19T05:33:09;12.40;99.90
2407;DHT22;37709;53.480;9.688;2023-09-19T05:35:37;12.30;99.90
2407;DHT22;37709;53.480;9.688;2023-09-19T05:38:07;12.20;99.90
2407;DHT22;37709;53.480;9.688;2023-09-19T05:40:36;12.20;99.90
2407;DHT22;37709;53.480;9.688;2023-09-19T05:43:06;12.40;99.90
2407;DHT22;37709;53.480;9.688;2023-09-19T05:45:34;12.50;99.90
2407;DHT22;37709;53.480;9.688;2023-09-19T05:48:11;12.60;99.90
2407;DHT22;37709;53.480;9.688;2023-09-19T05:50:41;12.90;99.90
2407;DHT22;37709;53.480;9.688;2023-09-19T05:53:09;13.10;99.90
2407;DHT22;37709;53.480;9.688;2023-09-19T05:55:40;13.30;99.90
2407;DHT22;37709;53.480;9.688;2023-09-19T05:58:08;13.60;99.90
2407;DHT22;37709;53.480;9.688;2023-09-19T06:00:37;13.80;99.90
2407;DHT22;37709;53.480;9.688;2023-09-19T06:03:06;14.10;99.90
2407;DHT22;37709;53.480;9.688;2023-09-19T06:05:34;14.30;99.90
2407;DHT22;37709;53.480;9.688;2023-09-19T06:08:01;14.50;99.90
2407;DHT22;37709;53.480;9.688;2023-09-19T06:10:35;14.60;99.90
2407;DHT22;37709;53.480;9.688;2023-09-19T06:13:03;14.80;99.90
2407;DHT22;37709;53.480;9.688;2023-09-19T06:15:37;15.10;99.90
2407;DHT22;37709;53.480;9.688;2023-09-19T06:18:11;15.10;99.90
2407;DHT22;37709;53.480;9.688;2023-09-19T06:20:41;15.10;99.90
2407;DHT22;37709;53.480;9.688;2023-09-19T06:23:13;15.20;99.90
2407;DHT22;37709;53.480;9.688;2023-09-19T06:25:40;15.30;99.90
2407;DHT22;37709;53.480;9.688;2023-09-19T06:28:10;15.40;99.90
2407;DHT22;37709;53.480;9.688;2023-09-19T06:30:42;15.50;99.90
2407;DHT22;37709;53.480;9.688;2023-09-19T06:33:09;15.60;99.90
2407;DHT22;37709;53.480;9.688;2023-09-19T06:35:39;15.70;99.90
2407;DHT22;37709;53.480;9.688;2023-09-19T06:38:06;15.90;99.90
2407;DHT22;37709;53.480;9.688;2023-09-19T06:40:34;16.10;99.90
2407;DHT22;37709;53.480;9.688;2023-09-19T06:43:02;16.40;99.90
2407;DHT22;37709;53.480;9.688;2023-09-19T06:45:31;16.60;99.90
2407;DHT22;37709;53.480;9.688;2023-09-19T06:47:59;16.60;99.90
2407;DHT22;37709;53.480;9.688;2023-09-19T06:50:27;16.50;99.90
2407;DHT22;37709;53.480;9.688;2023-09-19T06:52:55;16.60;99.90
2407;DHT22;37709;53.480;9.688;2023-09-19T06:55:26;16.70;99.90
2407;DHT22;37709;53.480;9.688;2023-09-19T06:57:59;16.70;99.90
2407;DHT22;37709;53.480;9.688;2023-09-19T07:00:29;16.80;99.90
2407;DHT22;37709;53.480;9.688;2023-09-19T07:03:00;16.80;99.90
2407;DHT22;37709;53.480;9.688;2023-09-19T07:05:32;16.80;99.90
2407;DHT22;37709;53.480;9.688;2023-09-19T07:08:00;16.90;99.90
2407;DHT22;37709;53.480;9.688;2023-09-19T07:10:29;17.10;99.90
2407;DHT22;37709;53.480;9.688;2023-09-19T07:13:01;17.20;99.90
2407;DHT22;37709;53.480;9.688;2023-09-19T07:15:29;17.10;99.90
2407;DHT22;37709;53.480;9.688;2023-09-19T07:17:58;16.90;99.90
2407;DHT22;37709;53.480;9.688;2023-09-19T07:20:25;16.80;99.90
2407;DHT22;37709;53.480;9.688;2023-09-19T07:22:54;16.70;99.90
2407;DHT22;37709;53.480;9.688;2023-09-19T07:25:22;16.70;99.90
2407;DHT22;37709;53.480;9.688;2023-09-19T07:27:52;16.70;99.90
2407;DHT22;37709;53.480;9.688;2023-09-19T07:30:22;16.80;99.90
2407;DHT22;37709;53.480;9.688;2023-09-19T07:32:49;16.70;99.90
2407;DHT22;37709;53.480;9.688;2023-09-19T07:35:16;16.60;99.90
2407;DHT22;37709;53.480;9.688;2023-09-19T07:37:47;16.50;99.90
2407;DHT22;37709;53.480;9.688;2023-09-19T07:40:18;16.40;99.90
2407;DHT22;37709;53.480;9.688;2023-09-19T07:42:46;16.20;99.90
2407;DHT22;37709;53.480;9.688;2023-09-19T07:45:14;16.20;99.90
2407;DHT22;37709;53.480;9.688;2023-09-19T07:47:48;16.10;99.90
2407;DHT22;37709;53.480;9.688;2023-09-19T07:50:18;16.20;99.90
2407;DHT22;37709;53.480;9.688;2023-09-19T07:52:50;16.50;99.90
2407;DHT22;37709;53.480;9.688;2023-09-19T07:55:25;16.70;99.90
2407;DHT22;37709;53.480;9.688;2023-09-19T07:57:53;16.90;99.90
2407;DHT22;37709;53.480;9.688;2023-09-19T08:00:20;17.00;99.90
2407;DHT22;37709;53.480;9.688;2023-09-19T08:02:48;17.30;99.90
2407;DHT22;37709;53.480;9.688;2023-09-19T08:05:24;17.50;99.90
2407;DHT22;37709;53.480;9.688;2023-09-19T08:07:52;17.60;99.90
2407;DHT22;37709;53.480;9.688;2023-09-19T08:10:21;17.80;99.90
2407;DHT22;37709;53.480;9.688;2023-09-19T08:12:49;17.90;99.90
2407;DHT22;37709;53.480;9.688;2023-09-19T08:15:23;18.10;99.90
2407;DHT22;37709;53.480;9.688;2023-09-19T08:17:51;18.40;99.90
2407;DHT22;37709;53.480;9.688;2023-09-19T08:20:48;18.70;99.90
2407;DHT22;37709;53.480;9.688;2023-09-19T08:23:18;18.80;99.90
2407;DHT22;37709;53.480;9.688;2023-09-19T08:25:47;18.80;99.90
2407;DHT22;37709;53.480;9.688;2023-09-19T08:28:15;18.70;99.90
2407;DHT22;37709;53.480;9.688;2023-09-19T08:30:46;18.60;99.90
2407;DHT22;37709;53.480;9.688;2023-09-19T08:33:14;18.60;99.90
2407;DHT22;37709;53.480;9.688;2023-09-19T08:35:46;18.70;99.90
2407;DHT22;37709;53.480;9.688;2023-09-19T08:38:14;18.80;99.90
2407;DHT22;37709;53.480;9.688;2023-09-19T08:40:42;19.00;99.90
2407;DHT22;37709;53.480;9.688;2023-09-19T08:43:11;19.20;99.90
2407;DHT22;37709;53.480;9.688;2023-09-19T08:45:42;19.40;99.90
2407;DHT22;37709;53.480;9.688;2023-09-19T08:48:24;19.70;99.90
2407;DHT22;37709;53.480;9.688;2023-09-19T08:50:56;20.00;99.90
2407;DHT22;37709;53.480;9.688;2023-09-19T08:53:42;20.20;99.90
2407;DHT22;37709;53.480;9.688;2023-09-19T08:56:17;20.20;99.90
2407;DHT22;37709;53.480;9.688;2023-09-19T08:58:50;20.10;99.90
2407;DHT22;37709;53.480;9.688;2023-09-19T09:01:20;19.90;99.90
2407;DHT22;37709;53.480;9.688;2023-09-19T09:03:57;19.90;99.90
2407;DHT22;37709;53.480;9.688;2023-09-19T09:06:31;19.90;99.90
2407;DHT22;37709;53.480;9.688;2023-09-19T09:09:00;20.20;99.90
2407;DHT22;37709;53.480;9.688;2023-09-19T09:11:29;20.50;99.90
2407;DHT22;37709;53.480;9.688;2023-09-19T09:14:01;20.60;99.90
2407;DHT22;37709;53.480;9.688;2023-09-19T09:16:30;20.70;99.90
2407;DHT22;37709;53.480;9.688;2023-09-19T09:19:01;21.30;99.90
2407;DHT22;37709;53.480;9.688;2023-09-19T09:21:28;21.60;99.90
2407;DHT22;37709;53.480;9.688;2023-09-19T09:23:56;22.00;99.90
2407;DHT22;37709;53.480;9.688;2023-09-19T09:26:42;22.60;99.90
2407;DHT22;37709;53.480;9.688;2023-09-19T09:29:14;24.00;99.90
2407;DHT22;37709;53.480;9.688;2023-09-19T09:31:47;24.60;99.90
2407;DHT22;37709;53.480;9.688;2023-09-19T09:34:19;25.00;99.90
2407;DHT22;37709;53.480;9.688;2023-09-19T09:36:48;25.40;99.90
2407;DHT22;37709;53.480;9.688;2023-09-19T09:39:30;25.90;99.90
2407;DHT22;37709;53.480;9.688;2023-09-19T09:41:58;25.20;99.90
2407;DHT22;37709;53.480;9.688;2023-09-19T09:44:29;25.50;99.60
2407;DHT22;37709;53.480;9.688;2023-09-19T09:47:00;26.20;99.10
2407;DHT22;37709;53.480;9.688;2023-09-19T09:49:48;26.70;98.10
2407;DHT22;37709;53.480;9.688;2023-09-19T09:52:22;26.40;96.50
2407;DHT22;37709;53.480;9.688;2023-09-19T09:55:10;26.70;95.60
2407;DHT22;37709;53.480;9.688;2023-09-19T09:57:37;27.60;94.40
2407;DHT22;37709;53.480;9.688;2023-09-19T10:00:33;27.70;93.90
2407;DHT22;37709;53.480;9.688;2023-09-19T10:03:21;27.70;93.30
2407;DHT22;37709;53.480;9.688;2023-09-19T10:05:58;28.30;92.60
2407;DHT22;37709;53.480;9.688;2023-09-19T10:11:00;29.60;91.90
2407;DHT22;37709;53.480;9.688;2023-09-19T10:13:37;29.30;86.40
2407;DHT22;37709;53.480;9.688;2023-09-19T10:16:11;27.50;87.50
2407;DHT22;37709;53.480;9.688;2023-09-19T10:18:42;26.50;90.10
2407;DHT22;37709;53.480;9.688;2023-09-19T10:21:11;25.20;91.00
2407;DHT22;37709;53.480;9.688;2023-09-19T10:23:40;24.80;92.70
2407;DHT22;37709;53.480;9.688;2023-09-19T10:26:11;26.00;91.60
2407;DHT22;37709;53.480;9.688;2023-09-19T10:28:48;24.80;91.80
2407;DHT22;37709;53.480;9.688;2023-09-19T10:31:21;24.00;92.70
2407;DHT22;37709;53.480;9.688;2023-09-19T10:33:51;22.90;93.40
2407;DHT22;37709;53.480;9.688;2023-09-19T10:36:26;22.40;94.30
2407;DHT22;37709;53.480;9.688;2023-09-19T10:38:56;23.10;93.80
2407;DHT22;37709;53.480;9.688;2023-09-19T10:41:32;22.40;93.60
2407;DHT22;37709;53.480;9.688;2023-09-19T10:44:03;22.30;94.80
2407;DHT22;37709;53.480;9.688;2023-09-19T10:46:32;22.90;94.50
2407;DHT22;37709;53.480;9.688;2023-09-19T10:49:01;24.20;93.60
2407;DHT22;37709;53.480;9.688;2023-09-19T10:51:32;24.30;93.80
2407;DHT22;37709;53.480;9.688;2023-09-19T10:54:12;24.70;93.00
2407;DHT22;37709;53.480;9.688;2023-09-19T10:56:47;24.60;93.60
2407;DHT22;37709;53.480;9.688;2023-09-19T10:59:17;25.70;93.20
2407;DHT22;37709;53.480;9.688;2023-09-19T11:01:50;27.30;91.20
2407;DHT22;37709;53.480;9.688;2023-09-19T11:04:35;26.50;90.60
2407;DHT22;37709;53.480;9.688;2023-09-19T11:07:06;26.20;91.40
2407;DHT22;37709;53.480;9.688;2023-09-19T11:09:49;25.60;90.70
2407;DHT22;37709;53.480;9.688;2023-09-19T11:15:02;24.80;91.40
2407;DHT22;37709;53.480;9.688;2023-09-19T11:17:42;24.30;91.60
2407;DHT22;37709;53.480;9.688;2023-09-19T11:30:51;24.40;90.50
2407;DHT22;37709;53.480;9.688;2023-09-19T11:36:15;25.90;90.30
2407;DHT22;37709;53.480;9.688;2023-09-19T11:46:53;26.40;88.10
2407;DHT22;37709;53.480;9.688;2023-09-19T11:49:29;27.40;88.10
2407;DHT22;37709;53.480;9.688;2023-09-19T11:52:00;29.10;85.40
2407;DHT22;37709;53.480;9.688;2023-09-19T11:54:29;28.50;83.40
2407;DHT22;37709;53.480;9.688;2023-09-19T11:57:00;28.90;84.80
2407;DHT22;37709;53.480;9.688;2023-09-19T11:59:30;27.10;85.60
2407;DHT22;37709;53.480;9.688;2023-09-19T12:02:01;26.30;87.70
2407;DHT22;37709;53.480;9.688;2023-09-19T12:04:37;26.00;88.60
2407;DHT22;37709;53.480;9.688;2023-09-19T12:07:14;25.20;89.10
2407;DHT22;37709;53.480;9.688;2023-09-19T12:09:50;25.20;88.80
2407;DHT22;37709;53.480;9.688;2023-09-19T12:12:29;28.50;86.00
2407;DHT22;37709;53.480;9.688;2023-09-19T12:15:07;29.40;82.10
2407;DHT22;37709;53.480;9.688;2023-09-19T12:17:38;30.40;80.10
2407;DHT22;37709;53.480;9.688;2023-09-19T12:20:09;29.40;80.10
2407;DHT22;37709;53.480;9.688;2023-09-19T12:22:44;28.60;82.10
2407;DHT22;37709;53.480;9.688;2023-09-19T12:25:13;29.30;79.50
2407;DHT22;37709;53.480;9.688;2023-09-19T12:27:43;28.90;78.60
2407;DHT22;37709;53.480;9.688;2023-09-19T12:30:11;27.30;79.10
2407;DHT22;37709;53.480;9.688;2023-09-19T12:32:54;28.40;77.80
2407;DHT22;37709;53.480;9.688;2023-09-19T12:35:32;30.90;75.30
2407;DHT22;37709;53.480;9.688;2023-09-19T12:38:29;31.00;72.70
2407;DHT22;37709;53.480;9.688;2023-09-19T12:41:02;28.40;76.00
2407;DHT22;37709;53.480;9.688;2023-09-19T12:43:32;27.40;77.30
2407;DHT22;37709;53.480;9.688;2023-09-19T12:46:01;26.70;77.40
2407;DHT22;37709;53.480;9.688;2023-09-19T12:48:30;25.50;79.40
2407;DHT22;37709;53.480;9.688;2023-09-19T12:51:02;25.60;80.80
2407;DHT22;37709;53.480;9.688;2023-09-19T12:53:36;28.00;78.00
2407;DHT22;37709;53.480;9.688;2023-09-19T12:56:15;31.20;74.30
2407;DHT22;37709;53.480;9.688;2023-09-19T12:58:55;31.50;69.80
2407;DHT22;37709;53.480;9.688;2023-09-19T13:01:24;30.80;70.30
2407;DHT22;37709;53.480;9.688;2023-09-19T13:04:17;30.80;71.00
2407;DHT22;37709;53.480;9.688;2023-09-19T13:06:50;29.70;71.60
2407;DHT22;37709;53.480;9.688;2023-09-19T13:09:22;29.40;70.30
2407;DHT22;37709;53.480;9.688;2023-09-19T13:12:35;30.00;71.20
2407;DHT22;37709;53.480;9.688;2023-09-19T13:15:11;30.40;70.20
2407;DHT22;37709;53.480;9.688;2023-09-19T13:17:49;30.60;69.50
2407;DHT22;37709;53.480;9.688;2023-09-19T13:20:26;30.50;70.00
2407;DHT22;37709;53.480;9.688;2023-09-19T13:22:59;32.20;67.50
2407;DHT22;37709;53.480;9.688;2023-09-19T13:25:28;32.70;65.10
2407;DHT22;37709;53.480;9.688;2023-09-19T13:27:57;32.00;65.50
2407;DHT22;37709;53.480;9.688;2023-09-19T13:30:26;32.30;64.60
2407;DHT22;37709;53.480;9.688;2023-09-19T13:33:06;31.80;63.50
2407;DHT22;37709;53.480;9.688;2023-09-19T13:35:34;29.00;66.20
2407;DHT22;37709;53.480;9.688;2023-09-19T13:38:03;30.40;65.70
2407;DHT22;37709;53.480;9.688;2023-09-19T13:40:34;31.10;65.80
2407;DHT22;37709;53.480;9.688;2023-09-19T13:43:02;32.80;64.20
2407;DHT22;37709;53.480;9.688;2023-09-19T13:45:34;33.70;61.00
2407;DHT22;37709;53.480;9.688;2023-09-19T13:48:01;32.80;61.40
2407;DHT22;37709;53.480;9.688;2023-09-19T13:50:28;32.00;61.80
2407;DHT22;37709;53.480;9.688;2023-09-19T13:52:56;31.90;62.20
2407;DHT22;37709;53.480;9.688;2023-09-19T13:55:25;30.90;62.80
2407;DHT22;37709;53.480;9.688;2023-09-19T13:57:53;31.00;62.70
2407;DHT22;37709;53.480;9.688;2023-09-19T14:00:23;29.70;64.50
2407;DHT22;37709;53.480;9.688;2023-09-19T14:02:51;29.70;64.40
2407;DHT22;37709;53.480;9.688;2023-09-19T14:05:21;28.70;65.80
2407;DHT22;37709;53.480;9.688;2023-09-19T14:07:49;29.70;64.60
2407;DHT22;37709;53.480;9.688;2023-09-19T14:10:17;29.30;65.20
2407;DHT22;37709;53.480;9.688;2023-09-19T14:12:45;28.80;65.60
2407;DHT22;37709;53.480;9.688;2023-09-19T14:15:14;29.00;66.40
2407;DHT22;37709;53.480;9.688;2023-09-19T14:17:41;28.80;66.70
2407;DHT22;37709;53.480;9.688;2023-09-19T14:20:13;27.90;67.70
2407;DHT22;37709;53.480;9.688;2023-09-19T14:22:42;26.10;71.00
2407;DHT22;37709;53.480;9.688;2023-09-19T14:25:10;25.70;72.80
2407;DHT22;37709;53.480;9.688;2023-09-19T14:27:37;25.20;74.00
2407;DHT22;37709;53.480;9.688;2023-09-19T14:30:06;25.00;76.70
2407;DHT22;37709;53.480;9.688;2023-09-19T14:32:35;25.80;74.50
2407;DHT22;37709;53.480;9.688;2023-09-19T14:35:03;24.60;76.10
2407;DHT22;37709;53.480;9.688;2023-09-19T14:37:30;23.70;78.30
2407;DHT22;37709;53.480;9.688;2023-09-19T14:39:58;23.60;80.20
2407;DHT22;37709;53.480;9.688;2023-09-19T14:42:25;24.00;79.20
2407;DHT22;37709;53.480;9.688;2023-09-19T14:44:53;24.20;79.20
2407;DHT22;37709;53.480;9.688;2023-09-19T14:47:20;23.60;80.50
2407;DHT22;37709;53.480;9.688;2023-09-19T14:49:48;24.10;81.00
2407;DHT22;37709;53.480;9.688;2023-09-19T14:52:15;24.50;79.60
2407;DHT22;37709;53.480;9.688;2023-09-19T14:54:43;23.90;80.70
2407;DHT22;37709;53.480;9.688;2023-09-19T14:57:11;23.50;82.10
2407;DHT22;37709;53.480;9.688;2023-09-19T14:59:40;22.90;83.70
2407;DHT22;37709;53.480;9.688;2023-09-19T15:02:08;22.30;85.10
2407;DHT22;37709;53.480;9.688;2023-09-19T15:04:36;22.00;86.20
2407;DHT22;37709;53.480;9.688;2023-09-19T15:07:04;21.80;86.90
2407;DHT22;37709;53.480;9.688;2023-09-19T15:09:32;21.60;88.00
2407;DHT22;37709;53.480;9.688;2023-09-19T15:12:27;21.30;88.70
2407;DHT22;37709;53.480;9.688;2023-09-19T15:14:56;21.20;90.00
2407;DHT22;37709;53.480;9.688;2023-09-19T15:17:23;21.90;89.30
2407;DHT22;37709;53.480;9.688;2023-09-19T15:19:53;22.50;87.20
2407;DHT22;37709;53.480;9.688;2023-09-19T15:22:20;22.40;86.90
2407;DHT22;37709;53.480;9.688;2023-09-19T15:24:50;22.00;88.30
2407;DHT22;37709;53.480;9.688;2023-09-19T15:27:18;21.70;88.90
2407;DHT22;37709;53.480;9.688;2023-09-19T15:29:46;21.30;89.70
2407;DHT22;37709;53.480;9.688;2023-09-19T15:32:14;20.80;90.60
2407;DHT22;37709;53.480;9.688;2023-09-19T15:34:42;20.50;91.20
2407;DHT22;37709;53.480;9.688;2023-09-19T15:37:09;20.40;91.30
2407;DHT22;37709;53.480;9.688;2023-09-19T15:39:36;20.40;91.40
2407;DHT22;37709;53.480;9.688;2023-09-19T15:42:29;20.60;91.90
2407;DHT22;37709;53.480;9.688;2023-09-19T15:44:59;20.50;91.90
2407;DHT22;37709;53.480;9.688;2023-09-19T15:47:26;20.30;91.80
2407;DHT22;37709;53.480;9.688;2023-09-19T15:49:55;20.30;91.90
2407;DHT22;37709;53.480;9.688;2023-09-19T15:52:23;20.20;91.90
2407;DHT22;37709;53.480;9.688;2023-09-19T15:54:53;20.10;92.00
2407;DHT22;37709;53.480;9.688;2023-09-19T15:57:21;19.90;92.20
2407;DHT22;37709;53.480;9.688;2023-09-19T15:59:48;19.80;92.40
2407;DHT22;37709;53.480;9.688;2023-09-19T16:02:17;19.70;92.50
2407;DHT22;37709;53.480;9.688;2023-09-19T16:04:45;19.60;92.80
2407;DHT22;37709;53.480;9.688;2023-09-19T16:07:16;19.40;93.00
2407;DHT22;37709;53.480;9.688;2023-09-19T16:09:45;19.20;93.40
2407;DHT22;37709;53.480;9.688;2023-09-19T16:12:13;19.20;93.80
2407;DHT22;37709;53.480;9.688;2023-09-19T16:14:42;19.20;94.00
2407;DHT22;37709;53.480;9.688;2023-09-19T16:17:09;19.20;93.80
2407;DHT22;37709;53.480;9.688;2023-09-19T16:19:38;19.30;93.90
2407;DHT22;37709;53.480;9.688;2023-09-19T16:22:05;19.30;93.80
2407;DHT22;37709;53.480;9.688;2023-09-19T16:24:34;19.30;93.90
2407;DHT22;37709;53.480;9.688;2023-09-19T16:27:06;19.30;94.20
2407;DHT22;37709;53.480;9.688;2023-09-19T16:29:34;19.20;94.50
2407;DHT22;37709;53.480;9.688;2023-09-19T16:32:01;19.10;94.50
2407;DHT22;37709;53.480;9.688;2023-09-19T16:34:28;19.00;94.80
2407;DHT22;37709;53.480;9.688;2023-09-19T16:36:55;18.90;95.10
2407;DHT22;37709;53.480;9.688;2023-09-19T16:39:26;18.80;95.40
2407;DHT22;37709;53.480;9.688;2023-09-19T16:41:53;18.70;95.80